Time;durP1;ratioP1;P1;durP2;ratioP2;P2;SDS_P1;SDS_P2;PMS_P1;PMS_P2;Temp;Humidity;BMP_temperature;BMP_pressure;BME280_temperature;BME280_humidity;BME280_pressure;Samples;Min_cycle;Max_cycle;Signal;HPM_P1;HPM_P2
2021/12/03 00:01:14;;;;;;;;;0.00;0.00;;;;;8.27;73.79;100642.03;5082400;27;45546;-72
2021/12/03 00:03:39;;;;;;;;;1.25;1.25;;;;;8.17;73.90;100641.63;5058143;28;45469;-74
2021/12/03 00:06:05;;;;;;;;;1.00;1.00;;;;;8.09;74.34;100635.22;5056750;28;45492;-75
2021/12/03 00:08:31;;;;;;;;;8.00;6.75;;;;;7.91;74.59;100621.47;5058245;28;45342;-73
2021/12/03 00:11:00;;;;;;;;;2.25;2.00;;;;;7.91;74.41;100632.75;5057803;28;45386;-73
2021/12/03 00:13:28;;;;;;;;;1.50;1.50;;;;;7.92;74.28;100636.28;5057942;28;45365;-75
2021/12/03 00:15:56;;;;;;;;;1.00;0.00;;;;;7.85;74.39;100631.63;5059295;28;46125;-75
2021/12/03 00:18:22;;;;;;;;;0.00;0.00;;;;;7.81;74.34;100620.19;5059943;28;45516;-73
2021/12/03 00:20:48;;;;;;;;;0.00;0.00;;;;;7.72;74.23;100620.72;5092290;27;46337;-74
2021/12/03 00:23:14;;;;;;;;;1.00;0.25;;;;;7.62;75.20;100626.34;5059583;28;45191;-72
2021/12/03 00:25:39;;;;;;;;;1.00;1.00;;;;;7.55;75.40;100630.38;5058574;28;45464;-74
2021/12/03 00:28:06;;;;;;;;;1.75;1.00;;;;;7.54;76.25;100623.41;5059770;28;45331;-75
2021/12/03 00:30:34;;;;;;;;;0.25;0.25;;;;;7.58;76.25;100619.25;5059423;28;45504;-75
2021/12/03 00:33:00;;;;;;;;;0.00;0.00;;;;;7.73;76.39;100617.25;5059447;28;45306;-74
2021/12/03 00:35:25;;;;;;;;;13.50;13.25;;;;;7.82;76.17;100616.78;5059274;28;45350;-75
2021/12/03 00:37:52;;;;;;;;;16.25;14.50;;;;;7.84;75.73;100614.22;5058211;28;45521;-75
2021/12/03 00:40:25;;;;;;;;;6.25;4.50;;;;;7.91;75.85;100611.06;5059405;28;45501;-76
2021/12/03 00:42:51;;;;;;;;;4.75;3.00;;;;;8.05;75.69;100622.94;5059312;28;45469;-75
2021/12/03 00:45:17;;;;;;;;;5.50;3.75;;;;;8.05;75.76;100628.13;5059380;28;45382;-76
2021/12/03 00:47:43;;;;;;;;;2.00;2.00;;;;;8.03;75.59;100628.91;5059680;28;45522;-74
2021/12/03 00:50:12;;;;;;;;;2.00;1.50;;;;;8.02;75.78;100633.22;5058985;28;46166;-76
2021/12/03 00:52:38;;;;;;;;;1.75;1.00;;;;;7.92;76.05;100612.88;5059243;28;46013;-72
2021/12/03 00:55:05;;;;;;;;;1.00;1.00;;;;;7.90;75.59;100610.19;5091900;27;45346;-76
2021/12/03 00:57:31;;;;;;;;;1.25;1.00;;;;;7.93;75.26;100625.03;5059480;28;45338;-74
2021/12/03 00:59:57;;;;;;;;;0.00;0.00;;;;;7.87;75.00;100612.66;5059022;28;45261;-73
2021/12/03 01:02:22;;;;;;;;;1.00;0.00;;;;;7.77;74.03;100593.16;5059056;28;45291;-75
2021/12/03 01:04:48;;;;;;;;;0.00;0.00;;;;;7.81;74.16;100609.78;5059290;28;45400;-76
2021/12/03 01:07:15;;;;;;;;;0.00;0.00;;;;;7.76;73.59;100624.34;5059459;28;45482;-76
2021/12/03 01:09:40;;;;;;;;;0.00;0.00;;;;;7.79;72.18;100631.38;5058804;28;46297;-75
2021/12/03 01:12:07;;;;;;;;;1.67;0.00;;;;;7.77;71.43;100628.69;5058797;28;45641;-76
2021/12/03 01:14:32;;;;;;;;;4.00;3.00;;;;;7.76;72.22;100635.63;5059091;28;45266;-75
2021/12/03 01:16:58;;;;;;;;;0.00;0.00;;;;;7.65;72.45;100639.44;5059092;28;45236;-75
2021/12/03 01:19:24;;;;;;;;;0.00;0.00;;;;;7.62;72.50;100633.22;5058662;28;45398;-74
2021/12/03 01:21:50;;;;;;;;;2.00;0.00;;;;;7.64;73.13;100652.38;5058700;28;45423;-75
2021/12/03 01:24:16;;;;;;;;;1.50;1.00;;;;;7.66;72.94;100658.53;5058777;28;45389;-72
2021/12/03 01:26:44;;;;;;;;;0.67;0.33;;;;;7.58;74.00;100658.22;5059266;28;45529;-73
2021/12/03 01:29:10;;;;;;;;;0.50;0.00;;;;;7.60;73.77;100666.97;5058167;28;45504;-75
2021/12/03 01:31:35;;;;;;;;;1.50;0.50;;;;;7.61;73.66;100663.53;5074020;28;45392;-75
2021/12/03 01:34:01;;;;;;;;;1.75;1.00;;;;;7.61;74.12;100678.25;5058428;28;45469;-76
2021/12/03 01:36:27;;;;;;;;;2.00;1.75;;;;;7.62;74.06;100680.94;5058548;28;45330;-76
2021/12/03 01:38:52;;;;;;;;;1.25;0.00;;;;;7.55;74.39;100671.06;5058094;28;45230;-72
2021/12/03 01:41:18;;;;;;;;;1.50;1.00;;;;;7.67;73.85;100689.81;5058108;28;45177;-72
2021/12/03 01:43:44;;;;;;;;;1.00;0.25;;;;;7.68;73.65;100696.81;5058768;28;45371;-74
2021/12/03 01:46:12;;;;;;;;;0.00;0.00;;;;;7.64;73.30;100697.50;5058563;28;45600;-74
2021/12/03 01:48:39;;;;;;;;;1.00;0.00;;;;;7.64;72.95;100714.78;5058147;28;46191;-75
2021/12/03 01:51:06;;;;;;;;;0.50;0.00;;;;;7.61;72.96;100707.75;5057984;28;45497;-70
2021/12/03 01:53:36;;;;;;;;;1.00;0.00;;;;;7.54;73.20;100711.78;5056925;28;45346;-75
2021/12/03 01:56:11;;;;;;;;;1.00;0.00;;;;;7.49;72.58;100712.41;5057143;28;46302;-76
2021/12/03 01:58:38;;;;;;;;;1.00;0.00;;;;;7.54;72.75;100708.28;5090685;27;45489;-70
2021/12/03 02:01:11;;;;;;;;;2.25;1.00;;;;;7.55;72.77;100717.88;5058126;28;45290;-68
2021/12/03 02:03:38;;;;;;;;;1.00;0.00;;;;;7.56;72.95;100717.06;5058073;28;45386;-70
2021/12/03 02:06:06;;;;;;;;;1.00;0.00;;;;;7.60;73.37;100725.88;5058123;28;45296;-69
2021/12/03 02:08:32;;;;;;;;;0.00;0.00;;;;;7.64;73.49;100726.09;5057660;28;45248;-69
2021/12/03 02:10:58;;;;;;;;;0.00;0.00;;;;;7.66;73.19;100724.44;5057858;28;45545;-69
2021/12/03 02:13:24;;;;;;;;;0.75;0.00;;;;;7.68;71.39;100724.50;5058091;28;45353;-71
2021/12/03 02:15:50;;;;;;;;;1.00;0.00;;;;;7.65;72.20;100722.66;5058439;28;45531;-69
2021/12/03 02:18:17;;;;;;;;;0.00;0.00;;;;;7.61;72.74;100722.47;5057332;28;46230;-69
2021/12/03 02:20:44;;;;;;;;;0.00;0.00;;;;;7.56;73.04;100720.56;5057667;28;45409;-69
2021/12/03 02:23:11;;;;;;;;;0.75;0.00;;;;;7.54;73.28;100724.78;5058026;28;45431;-73
2021/12/03 02:25:36;;;;;;;;;1.00;0.25;;;;;7.50;73.82;100722.88;5058164;28;45303;-69
2021/12/03 02:28:02;;;;;;;;;0.50;0.00;;;;;7.60;73.37;100728.47;5057533;28;45405;-71
2021/12/03 02:30:28;;;;;;;;;0.00;0.00;;;;;7.65;73.48;100737.38;5057942;28;45417;-72
2021/12/03 02:32:54;;;;;;;;;1.00;1.00;;;;;7.66;72.77;100736.53;5057873;28;45508;-74
2021/12/03 02:35:23;;;;;;;;;0.00;0.00;;;;;7.67;72.55;100747.00;5058319;28;45235;-75
2021/12/03 02:37:50;;;;;;;;;1.25;1.00;;;;;7.65;70.93;100734.78;5057737;28;46131;-75
2021/12/03 02:40:16;;;;;;;;;0.00;0.00;;;;;7.52;70.77;100728.13;5057681;28;45449;-74
2021/12/03 02:42:43;;;;;;;;;0.00;0.00;;;;;7.43;70.79;100725.13;5057401;28;45435;-75
2021/12/03 02:45:11;;;;;;;;;0.00;0.00;;;;;7.40;70.50;100730.16;5057481;28;45469;-74
2021/12/03 02:47:38;;;;;;;;;0.00;0.00;;;;;7.30;71.67;100716.78;5057220;28;46037;-75
2021/12/03 02:50:04;;;;;;;;;0.00;0.00;;;;;7.43;71.72;100727.72;5057280;28;45475;-75
2021/12/03 02:52:30;;;;;;;;;0.25;0.00;;;;;7.32;71.39;100719.41;5057574;28;45289;-75
2021/12/03 02:54:56;;;;;;;;;0.00;0.00;;;;;7.32;71.09;100733.31;5056279;28;45549;-75
2021/12/03 02:57:21;;;;;;;;;0.00;0.00;;;;;7.15;71.58;100729.94;5057517;28;46086;-75
2021/12/03 02:59:47;;;;;;;;;1.50;1.00;;;;;7.09;71.50;100734.84;5057399;28;45468;-75
2021/12/03 03:02:13;;;;;;;;;1.00;0.50;;;;;7.06;71.40;100744.19;5089852;27;45535;-73
2021/12/03 03:04:38;;;;;;;;;7.00;6.00;;;;;7.12;71.72;100744.47;5057404;28;45453;-75
2021/12/03 03:07:05;;;;;;;;;2.00;0.00;;;;;7.14;71.27;100735.03;5055795;28;46356;-75
2021/12/03 03:09:31;;;;;;;;;1.50;0.00;;;;;7.14;70.55;100743.75;5057221;28;45320;-74
2021/12/03 03:11:58;;;;;;;;;1.00;1.00;;;;;7.09;70.86;100739.16;5089839;27;45339;-75
2021/12/03 03:14:23;;;;;;;;;1.00;1.00;;;;;7.07;71.17;100749.47;5057325;28;45291;-71
2021/12/03 03:16:51;;;;;;;;;1.00;0.50;;;;;6.96;71.22;100738.59;5057186;28;46138;-72
2021/12/03 03:19:22;;;;;;;;;3.00;2.00;;;;;6.88;70.75;100745.09;5056877;28;45449;-75
2021/12/03 03:21:48;;;;;;;;;1.50;0.00;;;;;6.77;71.49;100736.81;5056968;28;45451;-75
2021/12/03 03:24:15;;;;;;;;;0.00;0.00;;;;;6.74;70.05;100731.47;5057005;28;45504;-73
2021/12/03 03:26:43;;;;;;;;;8.75;6.75;;;;;6.73;71.81;100749.56;5056690;28;46203;-75
2021/12/03 03:29:11;;;;;;;;;12.50;11.75;;;;;6.65;72.08;100741.41;5056734;28;45529;-74
2021/12/03 03:31:38;;;;;;;;;0.00;0.00;;;;;6.62;69.85;100751.63;5059619;28;45578;-75
2021/12/03 03:34:06;;;;;;;;;2.50;2.00;;;;;6.60;70.54;100749.78;5060501;28;45486;-75
2021/12/03 03:36:42;;;;;;;;;1.00;1.00;;;;;6.54;70.60;100752.94;5060212;28;46211;-75
2021/12/03 03:39:10;;;;;;;;;0.00;0.00;;;;;6.52;71.49;100760.66;5059091;28;45882;-74
2021/12/03 03:41:36;;;;;;;;;1.00;1.00;;;;;6.51;71.11;100745.03;5059021;28;45387;-74
2021/12/03 03:44:02;;;;;;;;;1.00;1.00;;;;;6.53;70.73;100741.69;5060679;28;45235;-74
2021/12/03 03:46:28;;;;;;;;;1.00;1.00;;;;;6.53;70.63;100752.06;5060108;28;45544;-74
2021/12/03 03:48:54;;;;;;;;;2.00;1.75;;;;;6.52;70.68;100760.66;5060285;28;45493;-71
2021/12/03 03:51:20;;;;;;;;;0.00;0.00;;;;;6.43;68.51;100749.84;5060367;28;45820;-74
2021/12/03 03:53:46;;;;;;;;;0.25;0.25;;;;;6.43;69.83;100736.88;5059227;28;45391;-74
2021/12/03 03:56:11;;;;;;;;;0.00;0.00;;;;;6.52;68.91;100755.47;5059981;28;46000;-75
2021/12/03 03:58:38;;;;;;;;;0.00;0.00;;;;;6.41;69.45;100735.03;5092872;27;45453;-74
2021/12/03 04:01:05;;;;;;;;;0.00;0.00;;;;;6.34;69.01;100744.19;5060334;28;45354;-75
2021/12/03 04:03:31;;;;;;;;;0.50;0.00;;;;;6.26;71.16;100741.19;5093150;27;45393;-75
2021/12/03 04:05:57;;;;;;;;;0.25;0.00;;;;;6.29;71.09;100741.38;5059913;28;45337;-75
2021/12/03 04:08:23;;;;;;;;;0.25;0.25;;;;;6.38;71.01;100749.59;5075825;28;45299;-76
2021/12/03 04:10:49;;;;;;;;;0.00;0.00;;;;;6.44;70.70;100751.59;5060022;28;45526;-75
2021/12/03 04:13:15;;;;;;;;;2.00;2.00;;;;;6.53;70.14;100744.28;5059916;28;45538;-76
2021/12/03 04:15:42;;;;;;;;;0.25;0.25;;;;;6.47;70.99;100730.13;5059501;28;46131;-75
2021/12/03 04:18:08;;;;;;;;;0.00;0.00;;;;;6.51;72.07;100738.13;5059884;28;45500;-76
2021/12/03 04:20:35;;;;;;;;;0.00;0.00;;;;;6.56;72.65;100740.94;5059809;28;45308;-74
2021/12/03 04:23:00;;;;;;;;;4.75;3.25;;;;;6.60;72.69;100749.78;5059284;28;45483;-74
2021/12/03 04:25:26;;;;;;;;;40.75;30.75;;;;;6.69;73.57;100768.41;5058667;28;45387;-73
2021/12/03 04:27:54;;;;;;;;;8.25;6.75;;;;;6.73;73.65;100778.13;5058450;28;45356;-74
2021/12/03 04:30:26;;;;;;;;;2.50;1.50;;;;;6.74;73.51;100778.22;5058604;28;45571;-75
2021/12/03 04:32:53;;;;;;;;;14.00;13.00;;;;;6.75;73.32;100777.38;5058491;28;45521;-74
2021/12/03 04:35:19;;;;;;;;;0.00;0.00;;;;;6.82;73.11;100783.75;5058137;28;46104;-75
2021/12/03 04:37:45;;;;;;;;;0.00;0.00;;;;;6.84;72.99;100786.44;5058200;28;45362;-73
2021/12/03 04:40:13;;;;;;;;;0.25;0.00;;;;;6.84;72.97;100783.84;5058656;28;45189;-74
2021/12/03 04:42:40;;;;;;;;;0.75;0.00;;;;;6.87;72.63;100782.28;5058264;28;45496;-74
2021/12/03 04:45:08;;;;;;;;;0.00;0.00;;;;;6.88;72.33;100789.25;5057977;28;45513;-75
2021/12/03 04:47:33;;;;;;;;;0.00;0.00;;;;;6.84;72.48;100783.84;5058171;28;45521;-71
2021/12/03 04:49:59;;;;;;;;;0.75;0.00;;;;;6.88;72.18;100784.03;5058473;28;45402;-69
2021/12/03 04:52:25;;;;;;;;;1.00;0.00;;;;;6.96;72.25;100794.81;5058806;28;45321;-75
2021/12/03 04:54:51;;;;;;;;;0.00;0.00;;;;;6.97;72.06;100796.59;5058148;28;45916;-74
2021/12/03 04:57:17;;;;;;;;;0.00;0.00;;;;;6.88;72.26;100778.84;5058164;28;45557;-73
2021/12/03 04:59:42;;;;;;;;;0.00;0.00;;;;;6.93;72.48;100792.09;5058117;28;45338;-74
2021/12/03 05:02:08;;;;;;;;;0.00;0.00;;;;;7.02;72.20;100805.50;5058189;28;45306;-75
2021/12/03 05:04:40;;;;;;;;;0.75;0.00;;;;;7.04;71.78;100798.66;5057999;28;45406;-73
2021/12/03 05:09:34;;;;;;;;;0.00;0.00;;;;;7.05;72.25;100800.47;5055835;28;45595;-74
2021/12/03 05:12:01;;;;;;;;;0.50;0.50;;;;;7.05;71.77;100804.78;5056169;28;45375;-73
2021/12/03 05:14:29;;;;;;;;;1.00;1.00;;;;;7.04;72.11;100802.97;5057678;28;46102;-74
2021/12/03 05:16:55;;;;;;;;;1.00;0.25;;;;;7.06;71.61;100807.44;5058247;28;45413;-73
2021/12/03 05:19:21;;;;;;;;;0.00;0.00;;;;;7.04;72.80;100801.25;5057388;28;45506;-75
2021/12/03 05:21:48;;;;;;;;;0.00;0.00;;;;;7.05;72.93;100817.75;5056601;28;45414;-74
2021/12/03 05:24:14;;;;;;;;;0.00;0.00;;;;;6.95;73.60;100806.91;5007534;28;1409887;-69
2021/12/03 05:26:40;;;;;;;;;1.00;0.00;;;;;7.03;72.94;100828.06;5057196;28;45415;-70
2021/12/03 05:29:07;;;;;;;;;1.00;1.00;;;;;7.02;72.89;100826.28;5047129;28;45537;-72
2021/12/03 05:31:34;;;;;;;;;0.00;0.00;;;;;7.01;72.54;100819.31;5054630;28;45434;-69
2021/12/03 05:34:01;;;;;;;;;0.00;0.00;;;;;6.88;72.64;100804.81;5055369;28;45638;-69
2021/12/03 05:36:26;;;;;;;;;1.00;1.00;;;;;7.01;73.01;100831.41;5056864;28;45529;-70
2021/12/03 05:38:52;;;;;;;;;0.00;0.00;;;;;7.02;73.88;100828.88;5056809;28;45449;-69
2021/12/03 05:41:17;;;;;;;;;0.00;0.00;;;;;7.03;73.60;100837.56;5056943;28;45330;-69
2021/12/03 05:43:43;;;;;;;;;0.00;0.00;;;;;7.03;72.79;100843.66;5056763;28;45232;-72
2021/12/03 05:46:09;;;;;;;;;1.00;1.00;;;;;7.01;72.90;100836.63;5056578;28;45495;-69
2021/12/03 05:48:35;;;;;;;;;4.50;4.50;;;;;7.05;72.87;100857.59;5056758;28;45553;-71
2021/12/03 05:51:00;;;;;;;;;2.50;2.25;;;;;7.01;73.09;100842.69;5047089;28;45475;-68
2021/12/03 05:53:26;;;;;;;;;0.00;0.00;;;;;6.97;73.75;100852.03;5055868;28;45509;-68
2021/12/03 05:55:51;;;;;;;;;1.25;0.00;;;;;7.05;74.06;100860.22;5053786;28;45350;-72
2021/12/03 05:58:18;;;;;;;;;1.00;0.75;;;;;7.05;73.81;100851.53;5056756;28;45370;-75
2021/12/03 06:00:47;;;;;;;;;1.00;1.00;;;;;7.03;74.02;100858.34;5056794;28;45328;-74
2021/12/03 06:03:13;;;;;;;;;0.00;0.00;;;;;7.01;73.67;100860.88;5053670;28;46205;-73
2021/12/03 06:05:40;;;;;;;;;1.00;0.00;;;;;7.02;73.50;100864.34;5056160;28;45457;-74
2021/12/03 06:08:06;;;;;;;;;0.50;0.50;;;;;6.92;73.24;100861.31;5056124;28;45621;-75
2021/12/03 06:10:33;;;;;;;;;2.25;1.00;;;;;6.97;73.48;100865.03;5053798;28;45353;-73
2021/12/03 06:13:01;;;;;;;;;4.00;3.50;;;;;6.99;74.37;100864.22;5058079;28;45329;-74
2021/12/03 06:15:27;;;;;;;;;3.00;3.00;;;;;6.98;74.24;100868.50;5058184;28;45268;-73
2021/12/03 06:17:53;;;;;;;;;0.25;0.25;;;;;6.90;74.61;100865.56;5057936;28;45358;-74
2021/12/03 06:20:19;;;;;;;;;1.00;0.75;;;;;6.79;74.89;100871.91;5056721;28;45360;-74
2021/12/03 06:22:46;;;;;;;;;0.00;0.00;;;;;6.55;75.31;100848.19;5057295;28;46149;-72
2021/12/03 06:25:14;;;;;;;;;1.00;0.00;;;;;6.53;75.57;100871.47;5057561;28;45453;-73
2021/12/03 06:27:41;;;;;;;;;0.50;0.50;;;;;6.28;75.79;100855.44;5057743;28;45326;-72
2021/12/03 06:30:09;;;;;;;;;3.00;1.00;;;;;6.30;75.91;100882.34;5058016;28;45352;-73
2021/12/03 06:32:35;;;;;;;;;3.00;3.00;;;;;6.07;76.26;100873.34;5056763;28;46073;-71
2021/12/03 06:35:01;;;;;;;;;3.00;3.00;;;;;6.04;76.53;100905.19;5057508;28;45429;-68
2021/12/03 06:37:27;;;;;;;;;3.50;3.00;;;;;5.95;76.84;100900.41;5057870;28;45390;-71
2021/12/03 06:39:52;;;;;;;;;1.00;0.00;;;;;5.79;76.78;100877.03;5057825;28;45318;-73
2021/12/03 06:42:18;;;;;;;;;2.00;1.25;;;;;5.90;76.89;100896.63;5057285;28;46047;-72
2021/12/03 06:44:43;;;;;;;;;5.00;3.00;;;;;5.78;77.31;100878.72;5056177;28;45273;-72
2021/12/03 06:47:10;;;;;;;;;5.00;3.00;;;;;5.85;76.95;100892.00;5057577;28;45197;-72
2021/12/03 06:49:35;;;;;;;;;31.50;28.00;;;;;5.85;77.38;100899.78;5057588;28;45366;-72
2021/12/03 06:52:06;;;;;;;;;11.00;11.00;;;;;5.78;76.82;100891.69;5057586;28;45532;-74
2021/12/03 06:54:34;;;;;;;;;3.50;1.00;;;;;5.81;76.94;100897.84;5057891;28;45871;-73
2021/12/03 06:57:02;;;;;;;;;0.00;0.00;;;;;5.78;75.78;100901.16;5057875;28;45492;-73
2021/12/03 06:59:28;;;;;;;;;0.00;0.00;;;;;5.66;76.73;100891.00;5058295;28;45387;-74
2021/12/03 07:01:54;;;;;;;;;0.75;0.75;;;;;5.72;76.91;100899.13;5057239;28;45519;-74
2021/12/03 07:04:21;;;;;;;;;1.00;1.00;;;;;5.74;77.15;100894.91;5054561;28;45633;-73
2021/12/03 07:06:47;;;;;;;;;1.75;1.00;;;;;5.76;76.73;100888.09;5055301;28;45620;-73
2021/12/03 07:09:13;;;;;;;;;3.00;2.00;;;;;5.72;76.95;100878.38;5055548;28;45599;-72
2021/12/03 07:11:38;;;;;;;;;46.25;39.75;;;;;5.77;76.98;100879.53;5055053;28;46245;-75
2021/12/03 07:14:04;;;;;;;;;37.00;30.25;;;;;5.81;75.89;100877.09;5055000;28;45453;-75
2021/12/03 07:16:30;;;;;;;;;4.25;4.25;;;;;5.76;75.86;100884.63;5045963;28;45366;-75
2021/12/03 07:18:57;;;;;;;;;7.50;6.25;;;;;5.71;76.03;100883.47;5055378;28;45494;-75
2021/12/03 07:21:23;;;;;;;;;6.00;6.00;;;;;5.69;75.62;100874.72;5055114;28;46127;-74
2021/12/03 07:23:50;;;;;;;;;37.50;33.50;;;;;5.68;75.79;100886.81;5054794;28;45461;-75
2021/12/03 07:26:17;;;;;;;;;17.00;13.75;;;;;5.73;74.96;100889.63;5079352;27;45529;-74
2021/12/03 07:28:43;;;;;;;;;8.75;8.25;;;;;5.84;75.27;100892.84;5054996;28;45849;-70
2021/12/03 07:31:11;;;;;;;;;8.00;7.50;;;;;5.84;75.82;100867.78;5054700;28;45543;-74
2021/12/03 07:33:37;;;;;;;;;4.50;4.00;;;;;6.06;75.27;100892.31;5054454;28;45439;-74
2021/12/03 07:36:05;;;;;;;;;2.75;2.00;;;;;6.11;75.05;100896.94;5054973;28;45480;-74
2021/12/03 07:38:30;;;;;;;;;71.50;57.50;;;;;6.15;75.25;100898.91;5055164;28;45445;-74
2021/12/03 07:40:56;;;;;;;;;28.50;24.75;;;;;6.17;75.42;100894.69;5054756;28;46412;-75
2021/12/03 07:43:21;;;;;;;;;15.75;15.00;;;;;6.26;75.08;100901.16;5054950;28;45678;-74
2021/12/03 07:45:48;;;;;;;;;18.00;17.00;;;;;6.30;75.32;100910.91;5055196;28;45510;-75
2021/12/03 07:48:14;;;;;;;;;20.25;18.00;;;;;6.37;75.15;100907.81;5055101;28;45534;-73
2021/12/03 07:50:41;;;;;;;;;18.50;17.50;;;;;6.39;74.61;100911.38;5054597;28;46063;-74
2021/12/03 07:53:09;;;;;;;;;41.00;37.75;;;;;6.44;74.21;100916.81;5054768;28;45449;-75
2021/12/03 07:55:35;;;;;;;;;11.25;10.50;;;;;6.41;74.55;100894.19;5052365;28;45563;-68
2021/12/03 07:58:03;;;;;;;;;15.50;14.00;;;;;6.46;74.12;100902.22;5055656;28;45511;-73
2021/12/03 08:00:29;;;;;;;;;26.50;22.00;;;;;6.61;73.97;100921.19;5055809;28;46029;-75
2021/12/03 08:02:55;;;;;;;;;15.75;13.25;;;;;6.65;73.69;100927.44;5056049;28;45429;-75
2021/12/03 08:05:20;;;;;;;;;21.00;21.00;;;;;6.68;74.04;100922.38;5056552;28;45437;-75
2021/12/03 08:07:47;;;;;;;;;9.00;9.00;;;;;6.69;74.01;100925.06;5056621;28;45261;-73
2021/12/03 08:10:14;;;;;;;;;15.25;12.50;;;;;6.75;73.27;100929.69;5055855;28;46223;-73
2021/12/03 08:12:44;;;;;;;;;13.50;12.25;;;;;6.79;74.03;100935.94;5056009;28;45505;-75
2021/12/03 08:15:10;;;;;;;;;4.25;2.25;;;;;6.84;73.61;100945.72;5056500;28;45517;-71
2021/12/03 08:17:36;;;;;;;;;8.00;8.00;;;;;6.80;74.04;100948.97;5059252;28;45253;-74
2021/12/03 08:20:03;;;;;;;;;4.25;4.25;;;;;6.81;73.78;100942.97;5059920;28;46072;-75
2021/12/03 08:22:29;;;;;;;;;21.25;19.00;;;;;6.73;73.88;100919.22;5059929;28;45316;-70
2021/12/03 08:24:54;;;;;;;;;63.75;48.00;;;;;6.95;73.47;100946.28;5059581;28;45268;-69
2021/12/03 08:27:20;;;;;;;;;43.75;38.50;;;;;7.01;72.98;100944.00;5059526;28;45475;-73
2021/12/03 08:29:46;;;;;;;;;16.50;16.50;;;;;7.02;72.90;100950.06;5054280;28;45567;-71
2021/12/03 08:32:11;;;;;;;;;76.00;58.75;;;;;7.09;73.30;100962.56;5056996;28;45489;-72
2021/12/03 08:34:37;;;;;;;;;88.25;67.25;;;;;7.11;73.10;100963.53;5056926;28;45509;-71
2021/12/03 08:37:04;;;;;;;;;60.50;50.75;;;;;7.19;73.23;100953.53;5058102;28;45473;-70
2021/12/03 08:39:30;;;;;;;;;36.25;34.25;;;;;7.34;72.84;100956.88;5057415;28;45543;-68
2021/12/03 08:41:57;;;;;;;;;13.25;13.00;;;;;7.44;72.92;100945.22;5057322;28;45396;-73
2021/12/03 08:44:22;;;;;;;;;18.00;14.75;;;;;7.50;72.80;100922.13;5058023;28;45394;-71
2021/12/03 08:46:56;;;;;;;;;11.25;8.75;;;;;7.60;72.43;100921.78;5057768;28;45479;-70
2021/12/03 08:49:30;;;;;;;;;16.25;15.00;;;;;7.79;71.65;100930.44;5054284;28;46100;-78
2021/12/03 08:57:09;;;;;;;;;14.75;13.00;;;;;7.97;69.64;100939.09;5056248;28;45332;-72
2021/12/03 08:59:34;;;;;;;;;9.25;9.25;;;;;7.96;69.08;100940.81;5057021;28;46082;-74
2021/12/03 09:02:00;;;;;;;;;15.00;14.00;;;;;8.04;69.65;100935.06;5056647;28;45467;-76
2021/12/03 09:04:25;;;;;;;;;19.00;19.00;;;;;8.11;68.61;100940.63;5056021;28;45401;-71
2021/12/03 09:06:51;;;;;;;;;25.25;22.50;;;;;8.17;68.55;100938.31;5058580;28;45531;-69
2021/12/03 09:09:17;;;;;;;;;13.00;12.50;;;;;8.27;67.70;100941.34;5058102;28;45678;-69
2021/12/03 09:11:42;;;;;;;;;12.25;8.75;;;;;8.34;68.19;100962.50;5058052;28;45469;-69
2021/12/03 09:14:24;;;;;;;;;4.00;4.00;;;;;8.29;68.01;100960.53;5057139;28;45562;-74
2021/12/03 09:17:04;;;;;;;;;4.00;3.00;;;;;8.38;68.72;100983.50;5057739;28;45449;-70
2021/12/03 09:19:37;;;;;;;;;5.25;5.25;;;;;8.36;67.68;100952.19;5057688;28;46726;-75
2021/12/03 09:22:07;;;;;;;;;45.75;39.00;;;;;8.56;67.43;100955.72;5057241;28;45416;-72
2021/12/03 09:24:36;;;;;;;;;18.50;16.75;;;;;8.73;67.67;100938.22;5055072;28;45478;-71
2021/12/03 09:27:02;;;;;;;;;13.00;10.00;;;;;9.04;67.25;100939.53;5056069;28;45627;-74
2021/12/03 09:29:33;;;;;;;;;12.75;12.25;;;;;9.23;66.67;100930.75;5056344;28;45982;-78
2021/12/03 09:31:59;;;;;;;;;10.00;9.00;;;;;9.49;66.19;100943.16;5057585;28;45496;-78
2021/12/03 09:34:28;;;;;;;;;9.00;8.75;;;;;9.62;66.16;100947.16;5053285;28;45812;-72
2021/12/03 09:36:54;;;;;;;;;5.67;3.00;;;;;9.69;66.43;100951.78;5057093;28;45575;-73
2021/12/03 09:39:22;;;;;;;;;22.25;22.00;;;;;9.74;66.32;100951.97;5056555;28;45374;-72
2021/12/03 09:41:52;;;;;;;;;12.25;9.00;;;;;9.78;66.01;100953.88;5056941;28;46177;-70
2021/12/03 09:44:19;;;;;;;;;9.50;9.00;;;;;9.85;65.79;100941.97;5057443;28;45374;-76
2021/12/03 09:46:47;;;;;;;;;30.75;26.50;;;;;9.85;66.17;100945.47;5057397;28;45474;-72
2021/12/03 09:49:35;;;;;;;;;16.25;13.00;;;;;9.90;66.18;100954.34;5057024;28;46222;-72
2021/12/03 09:55:19;;;;;;;;;4.25;4.00;;;;;9.99;65.38;100929.44;5033810;28;46259;-72
2021/12/03 09:57:57;;;;;;;;;3.33;3.00;;;;;9.78;65.28;100861.66;5056536;28;45556;-72
2021/12/03 10:00:32;;;;;;;;;9.50;8.00;;;;;10.32;65.13;100938.56;5055392;28;45549;-77
2021/12/03 10:13:41;;;;;;;;;7.00;7.00;;;;;11.34;62.95;100921.22;5044357;28;45624;-74
2021/12/03 10:16:33;;;;;;;;;4.00;4.00;;;;;11.59;62.37;100924.63;5056875;28;45843;-76
2021/12/03 10:19:19;;;;;;;;;3.00;3.00;;;;;11.81;61.50;100937.53;5056965;28;45459;-76
2021/12/03 10:43:47;;;;;;;;;5.67;5.67;;;;;12.50;59.43;100913.44;5053033;28;45602;-73
2021/12/03 11:37:48;;;;;;;;;1.33;0.00;;;;;12.92;58.72;100820.16;5055624;28;45530;-71
2021/12/03 12:15:14;;;;;;;;;5.00;4.00;;;;;13.22;58.23;100771.91;5060150;28;45417;-68
2021/12/03 12:29:56;;;;;;;;;4.33;1.67;;;;;12.67;60.13;100771.47;5055010;28;45391;-68
2021/12/03 13:24:38;;;;;;;;;7.00;6.25;;;;;11.92;64.92;100721.50;5058603;28;45427;-74
2021/12/03 14:00:07;;;;;;;;;5.00;5.00;;;;;11.61;69.31;100696.19;5058858;28;45173;-73
2021/12/03 14:08:23;;;;;;;;;3.33;3.33;;;;;11.56;69.74;100684.72;5058004;28;45268;-70
2021/12/03 14:38:06;;;;;;;;;11.33;7.00;;;;;11.45;72.83;100683.53;5057458;28;45361;-74
2021/12/03 15:05:56;;;;;;;;;2.00;1.67;;;;;11.25;74.01;100667.25;5057458;28;45367;-72
2021/12/03 15:08:32;;;;;;;;;7.00;6.75;;;;;11.28;74.44;100678.69;5057055;28;45352;-75
2021/12/03 15:14:41;;;;;;;;;11.25;8.25;;;;;11.27;74.52;100671.69;5057017;28;45516;-71
2021/12/03 15:32:12;;;;;;;;;7.00;6.25;;;;;11.23;75.16;100688.13;5017926;28;45912;-69
2021/12/03 15:54:14;;;;;;;;;14.25;13.00;;;;;11.25;76.01;100664.63;5060303;28;45442;-72
2021/12/03 16:04:26;;;;;;;;;4.00;4.00;;;;;11.32;76.39;100679.66;5060142;28;45379;-73
2021/12/03 16:25:47;;;;;;;;;10.25;9.50;;;;;11.39;76.95;100704.28;5059198;28;45543;-74
2021/12/03 16:44:56;;;;;;;;;4.00;4.00;;;;;11.41;77.22;100674.69;5059230;28;45767;-80
2021/12/03 16:52:33;;;;;;;;;10.67;9.67;;;;;11.58;76.73;100698.72;5059546;28;45469;-81
2021/12/03 16:55:00;;;;;;;;;7.67;7.33;;;;;11.59;76.54;100705.72;5059420;28;46273;-83
2021/12/03 16:57:35;;;;;;;;;15.00;14.00;;;;;11.51;77.10;100686.31;5059111;28;45228;-72
2021/12/03 17:00:26;;;;;;;;;22.50;20.75;;;;;11.59;76.89;100700.47;5058870;28;45466;-71
2021/12/03 17:03:02;;;;;;;;;13.00;12.00;;;;;11.60;77.01;100702.28;5058809;28;45425;-81
2021/12/03 17:06:49;;;;;;;;;14.00;13.25;;;;;11.62;76.80;100705.81;5055996;28;45459;-75
2021/12/03 17:13:56;;;;;;;;;16.75;15.50;;;;;11.63;77.37;100720.66;5058605;28;45383;-76
2021/12/03 18:19:04;;;;;;;;;6.33;6.00;;;;;11.73;76.93;100687.78;5058544;28;45491;-77
2021/12/03 18:46:02;;;;;;;;;5.00;5.00;;;;;11.72;75.88;100673.81;5056829;28;45446;-77
2021/12/03 18:53:48;;;;;;;;;13.00;11.33;;;;;11.92;75.30;100686.59;5058121;28;45334;-78
2021/12/03 18:56:31;;;;;;;;;13.67;12.00;;;;;11.93;75.41;100698.84;5044800;28;45419;-79
2021/12/03 18:59:04;;;;;;;;;5.00;4.00;;;;;11.95;75.46;100686.66;5059013;28;45427;-76
2021/12/03 19:01:33;;;;;;;;;6.33;6.33;;;;;11.97;75.38;100686.72;5056751;28;46279;-73
2021/12/03 19:04:18;;;;;;;;;14.00;12.00;;;;;11.99;75.21;100688.53;5056351;28;45465;-71
2021/12/03 19:06:57;;;;;;;;;8.00;7.33;;;;;11.93;75.11;100670.91;5055323;28;45510;-77
2021/12/03 19:09:29;;;;;;;;;2.33;2.00;;;;;12.01;75.23;100692.06;5057348;28;45620;-72
2021/12/03 19:12:08;;;;;;;;;1.00;1.00;;;;;12.03;75.11;100689.50;5054576;28;45690;-77
2021/12/03 19:14:36;;;;;;;;;7.00;7.00;;;;;12.05;74.88;100683.44;5058103;28;45597;-76
2021/12/03 19:17:04;;;;;;;;;3.00;2.67;;;;;12.06;74.44;100682.59;5056846;28;45398;-80
2021/12/03 19:19:30;;;;;;;;;2.00;2.00;;;;;12.08;74.86;100685.28;5056783;28;45441;-81
2021/12/03 19:21:59;;;;;;;;;4.33;4.33;;;;;12.03;74.74;100664.19;5059398;28;46532;-74